Time;durP1;ratioP1;P1;durP2;ratioP2;P2;SDS_P1;SDS_P2;PMS_P1;PMS_P2;Temp;Humidity;BMP_temperature;BMP_pressure;BME280_temperature;BME280_humidity;BME280_pressure;Samples;Min_cycle;Max_cycle;Signal;HPM_P1;HPM_P2
2022/11/20 00:02:25;;;;;;;5.20;3.67;;;;;2.50;93416.00;;;;7382892;19;20602;-75
2022/11/20 00:04:55;;;;;;;9.70;3.80;;;;;2.50;93420.00;;;;7377991;19;20739;-75
2022/11/20 00:07:30;;;;;;;6.50;3.80;;;;;2.70;93421.00;;;;7380058;19;20132;-75
2022/11/20 00:09:58;;;;;;;5.90;3.67;;;;;2.70;93426.00;;;;7382910;19;20167;-75
2022/11/20 00:12:25;;;;;;;5.93;3.53;;;;;2.60;93420.00;;;;7381479;19;20184;-76
2022/11/20 00:15:00;;;;;;;9.63;3.70;;;;;2.70;93429.00;;;;7382726;19;20179;-76
2022/11/20 00:17:29;;;;;;;6.90;3.70;;;;;2.70;93425.00;;;;7383385;19;20170;-76
2022/11/20 00:19:57;;;;;;;4.90;3.90;;;;;2.90;93424.00;;;;7384852;19;20132;-76
2022/11/20 00:22:31;;;;;;;6.13;3.23;;;;;2.80;93420.00;;;;7383023;19;20153;-76
2022/11/20 00:24:58;;;;;;;4.00;3.50;;;;;2.60;93424.00;;;;7385352;19;20139;-76
2022/11/20 00:27:25;;;;;;;6.33;3.70;;;;;2.70;93435.00;;;;7381068;19;20155;-76
2022/11/20 00:30:07;;;;;;;6.93;4.00;;;;;2.60;93426.00;;;;7383919;19;20599;-76
2022/11/20 00:32:40;;;;;;;6.20;3.70;;;;;2.50;93424.00;;;;7383938;19;20163;-76
2022/11/20 00:35:16;;;;;;;6.27;3.73;;;;;2.50;93424.00;;;;7385345;19;20128;-75
2022/11/20 00:37:44;;;;;;;4.80;3.30;;;;;2.40;93426.00;;;;7381646;19;20146;-76
2022/11/20 00:40:12;;;;;;;6.90;4.37;;;;;2.60;93433.00;;;;7382446;19;20120;-76
2022/11/20 00:42:47;;;;;;;23.97;4.60;;;;;2.40;93441.00;;;;7384262;19;20144;-75
2022/11/20 00:45:14;;;;;;;6.77;3.53;;;;;2.30;93431.00;;;;7383241;19;20560;-75
2022/11/20 00:47:42;;;;;;;4.33;3.57;;;;;2.30;93434.00;;;;7383782;19;20129;-75
2022/11/20 00:50:23;;;;;;;6.03;3.73;;;;;2.20;93428.00;;;;7382219;19;20129;-76
2022/11/20 00:52:50;;;;;;;3.97;3.23;;;;;2.30;93434.00;;;;7380949;19;21168;-77
2022/11/20 00:55:24;;;;;;;7.67;3.63;;;;;2.40;93440.00;;;;7380806;19;20153;-75
2022/11/20 00:57:51;;;;;;;4.60;3.50;;;;;2.50;93428.00;;;;7382087;19;20167;-76
2022/11/20 01:00:19;;;;;;;8.50;3.40;;;;;2.50;93429.00;;;;7382938;19;20144;-76
2022/11/20 01:02:55;;;;;;;5.80;3.20;;;;;2.40;93439.00;;;;7377561;19;20152;-75
2022/11/20 01:05:22;;;;;;;7.27;3.30;;;;;2.40;93430.00;;;;7381047;19;20171;-75
2022/11/20 01:07:50;;;;;;;4.33;3.50;;;;;2.50;93433.00;;;;7383062;19;20230;-77
2022/11/20 01:10:24;;;;;;;5.13;3.40;;;;;2.50;93433.00;;;;7382016;19;20238;-75
2022/11/20 01:16:22;;;;;;;3.53;2.80;;;;;2.50;93426.00;;;;7384850;19;20144;-76
2022/11/20 01:18:51;;;;;;;3.93;3.07;;;;;2.60;93427.00;;;;7379470;19;20148;-76
2022/11/20 01:21:27;;;;;;;6.83;3.23;;;;;2.60;93428.00;;;;7382158;19;20124;-76
2022/11/20 01:23:56;;;;;;;3.50;3.20;;;;;2.60;93429.00;;;;7382209;19;20152;-74
2022/11/20 01:26:27;;;;;;;4.33;3.10;;;;;2.70;93417.00;;;;7384125;19;20136;-76
2022/11/20 01:29:01;;;;;;;3.93;3.30;;;;;2.80;93423.00;;;;7383077;19;20121;-77
2022/11/20 01:31:35;;;;;;;4.30;3.27;;;;;2.80;93423.00;;;;7383965;19;20477;-76
2022/11/20 01:34:15;;;;;;;4.87;3.53;;;;;2.90;93429.00;;;;7388528;19;20139;-75
2022/11/20 01:36:43;;;;;;;3.73;2.90;;;;;2.60;93422.00;;;;7391543;19;20129;-76
2022/11/20 01:39:23;;;;;;;3.93;3.20;;;;;2.60;93424.00;;;;7387912;19;20621;-76
2022/11/20 01:44:52;;;;;;;4.23;3.30;;;;;2.60;93426.00;;;;7388937;19;20501;-74
2022/11/20 01:47:40;;;;;;;6.53;3.80;;;;;2.60;93423.00;;;;7389615;19;20161;-75
2022/11/20 01:50:20;;;;;;;5.40;3.60;;;;;2.60;93419.00;;;;7388388;19;20144;-76
2022/11/20 01:53:00;;;;;;;5.63;3.90;;;;;2.70;93422.00;;;;7389313;19;20699;-75
2022/11/20 01:55:46;;;;;;;7.43;4.27;;;;;2.90;93413.00;;;;7388624;19;20143;-76
2022/11/20 01:58:13;;;;;;;5.80;4.33;;;;;2.90;93417.00;;;;7387318;19;20648;-74
2022/11/20 02:00:47;;;;;;;4.53;3.70;;;;;3.00;93418.00;;;;7387824;19;20602;-75
2022/11/20 02:03:19;;;;;;;6.77;4.40;;;;;3.00;93412.00;;;;7393460;19;20133;-75
2022/11/20 02:06:04;;;;;;;7.13;4.20;;;;;3.10;93404.00;;;;7390687;19;20153;-75
2022/11/20 02:08:38;;;;;;;5.60;4.20;;;;;3.10;93411.00;;;;7392649;19;20203;-75
2022/11/20 02:11:20;;;;;;;7.23;4.70;;;;;3.20;93397.00;;;;7390443;19;20743;-75
2022/11/20 02:13:55;;;;;;;8.17;4.27;;;;;3.10;93409.00;;;;7388828;19;20530;-75
2022/11/20 02:16:25;;;;;;;9.60;4.53;;;;;3.10;93416.00;;;;7390704;19;20144;-75
2022/11/20 02:18:57;;;;;;;5.97;3.80;;;;;3.20;93412.00;;;;7387967;19;20196;-75
2022/11/20 02:21:59;;;;;;;7.23;5.30;;;;;3.30;93423.00;;;;7389868;19;20128;-75
2022/11/20 02:24:26;;;;;;;7.03;5.00;;;;;3.20;93407.00;;;;7392419;19;20180;-75
2022/11/20 02:27:09;;;;;;;7.00;4.37;;;;;3.20;93418.00;;;;7391172;19;21075;-75
2022/11/20 02:30:00;;;;;;;10.20;4.77;;;;;3.00;93414.00;;;;7389347;19;20153;-75
2022/11/20 02:32:37;;;;;;;5.63;4.70;;;;;3.30;93423.00;;;;7391756;19;20152;-75
2022/11/20 02:35:09;;;;;;;8.40;4.70;;;;;3.30;93419.00;;;;7394698;19;20149;-75
2022/11/20 02:37:44;;;;;;;6.33;5.23;;;;;3.20;93420.00;;;;7392517;19;20671;-75
2022/11/20 02:40:12;;;;;;;5.23;4.50;;;;;3.20;93411.00;;;;7391866;19;20139;-74
2022/11/20 02:42:39;;;;;;;11.07;4.67;;;;;3.10;93416.00;;;;7393698;19;20200;-75
2022/11/20 02:45:15;;;;;;;6.50;4.63;;;;;3.10;93411.00;;;;7394505;19;20131;-75
2022/11/20 02:47:43;;;;;;;7.23;4.90;;;;;3.30;93418.00;;;;7392373;19;20129;-74
2022/11/20 02:50:10;;;;;;;7.60;4.83;;;;;3.30;93427.00;;;;7393669;19;20149;-75
2022/11/20 02:52:45;;;;;;;5.67;4.73;;;;;3.30;93424.00;;;;7391769;19;20148;-75
2022/11/20 02:55:13;;;;;;;5.43;4.77;;;;;3.50;93428.00;;;;7389939;19;20148;-75
2022/11/20 02:57:40;;;;;;;8.17;5.40;;;;;3.50;93423.00;;;;7388845;19;20166;-74
2022/11/20 03:00:15;;;;;;;4.80;4.27;;;;;3.40;93432.00;;;;7387569;19;20211;-75
2022/11/20 03:02:42;;;;;;;10.67;5.07;;;;;3.70;93423.00;;;;7388141;19;20144;-75
2022/11/20 03:05:10;;;;;;;6.30;4.50;;;;;3.60;93428.00;;;;7388779;19;20133;-75
2022/11/20 03:07:44;;;;;;;4.60;4.17;;;;;3.50;93428.00;;;;7387742;19;20229;-75
2022/11/20 03:10:12;;;;;;;5.37;4.27;;;;;3.40;93434.00;;;;7390883;19;20566;-75
2022/11/20 03:12:39;;;;;;;4.33;3.90;;;;;3.60;93423.00;;;;7388257;19;20553;-75
2022/11/20 03:15:14;;;;;;;7.87;3.83;;;;;3.40;93433.00;;;;7390127;19;20767;-75
2022/11/20 03:17:41;;;;;;;5.00;3.77;;;;;3.70;93433.00;;;;7387198;19;20132;-75
2022/11/20 03:20:09;;;;;;;4.30;3.30;;;;;3.70;93426.00;;;;7388463;19;20136;-75
2022/11/20 03:22:45;;;;;;;5.33;3.43;;;;;3.60;93429.00;;;;7387969;19;20135;-75
2022/11/20 03:25:13;;;;;;;4.17;3.57;;;;;3.60;93438.00;;;;7387497;19;20250;-75
2022/11/20 03:27:40;;;;;;;3.67;3.30;;;;;3.70;93425.00;;;;7387848;19;20121;-75
2022/11/20 03:30:15;;;;;;;4.23;3.07;;;;;3.50;93430.00;;;;7388395;19;20212;-75
2022/11/20 03:32:42;;;;;;;6.13;3.57;;;;;3.50;93425.00;;;;7388148;19;20144;-75
2022/11/20 03:35:10;;;;;;;5.33;3.13;;;;;3.50;93418.00;;;;7387099;19;20208;-74
2022/11/20 03:37:45;;;;;;;5.80;3.60;;;;;3.60;93414.00;;;;7387218;19;20157;-75
2022/11/20 03:40:13;;;;;;;4.17;2.77;;;;;3.80;93427.00;;;;7385292;19;20492;-74
2022/11/20 03:42:47;;;;;;;5.47;3.10;;;;;3.70;93421.00;;;;7387414;19;20211;-75
2022/11/20 03:45:21;;;;;;;5.60;3.00;;;;;3.80;93433.00;;;;7387143;19;20137;-75
2022/11/20 03:47:49;;;;;;;4.20;3.00;;;;;3.70;93429.00;;;;7389091;19;20195;-74
2022/11/20 03:50:16;;;;;;;5.10;2.73;;;;;3.80;93422.00;;;;7386515;19;20506;-74
2022/11/20 03:52:50;;;;;;;3.33;2.60;;;;;3.70;93416.00;;;;7388855;19;20508;-74
2022/11/20 03:55:17;;;;;;;4.67;2.80;;;;;3.70;93412.00;;;;7386482;19;20153;-75
2022/11/20 03:57:45;;;;;;;2.80;2.50;;;;;3.80;93414.00;;;;7388847;19;20579;-75
2022/11/20 04:00:19;;;;;;;3.70;2.50;;;;;3.70;93428.00;;;;7387553;19;20502;-75
2022/11/20 04:02:46;;;;;;;4.57;2.60;;;;;3.90;93426.00;;;;7390615;19;20132;-74
2022/11/20 04:05:14;;;;;;;2.80;2.40;;;;;3.90;93420.00;;;;7387423;19;20178;-75
2022/11/20 04:07:48;;;;;;;2.87;2.40;;;;;3.80;93418.00;;;;7390559;19;20136;-75
2022/11/20 04:10:18;;;;;;;5.40;2.60;;;;;3.80;93413.00;;;;7391109;19;20146;-74
2022/11/20 04:12:46;;;;;;;3.13;2.50;;;;;3.90;93414.00;;;;7391260;19;20245;-74
2022/11/20 04:15:20;;;;;;;3.37;2.23;;;;;3.90;93413.00;;;;7395798;19;20141;-74
2022/11/20 04:17:47;;;;;;;2.80;2.10;;;;;3.80;93417.00;;;;7395481;19;20135;-75
2022/11/20 04:20:15;;;;;;;3.40;2.30;;;;;4.00;93408.00;;;;7392972;19;20149;-74
2022/11/20 04:22:52;;;;;;;5.37;2.13;;;;;4.00;93411.00;;;;7393553;19;20145;-75
2022/11/20 04:25:20;;;;;;;2.17;1.97;;;;;4.00;93403.00;;;;7393599;19;20179;-75
2022/11/20 04:27:48;;;;;;;3.00;1.93;;;;;4.10;93411.00;;;;7394224;19;20147;-74
2022/11/20 04:30:22;;;;;;;3.43;2.30;;;;;4.00;93401.00;;;;7395683;19;20136;-75
2022/11/20 04:32:50;;;;;;;3.40;2.30;;;;;4.00;93403.00;;;;7392915;19;20616;-75
2022/11/20 04:35:17;;;;;;;2.07;1.80;;;;;4.00;93394.00;;;;7393144;19;20136;-74
2022/11/20 04:37:52;;;;;;;3.30;2.30;;;;;3.90;93395.00;;;;7393811;19;20156;-74
2022/11/20 04:40:19;;;;;;;5.00;2.40;;;;;4.00;93397.00;;;;7389713;19;20643;-74
2022/11/20 04:42:47;;;;;;;2.40;2.20;;;;;4.00;93410.00;;;;7387555;19;20474;-74
2022/11/20 04:45:24;;;;;;;3.67;2.40;;;;;3.90;93412.00;;;;7385137;19;20223;-74
2022/11/20 04:47:55;;;;;;;4.90;2.10;;;;;4.00;93402.00;;;;7387048;19;20145;-75
2022/11/20 04:50:29;;;;;;;2.90;1.83;;;;;4.00;93403.00;;;;7386724;19;20152;-75
2022/11/20 04:52:56;;;;;;;4.13;2.50;;;;;4.10;93390.00;;;;7386788;19;20166;-74
2022/11/20 04:55:24;;;;;;;2.07;1.83;;;;;4.00;93394.00;;;;7385603;19;21173;-74
2022/11/20 04:57:58;;;;;;;3.50;2.10;;;;;4.00;93393.00;;;;7388881;19;20603;-75
2022/11/20 05:00:26;;;;;;;2.50;1.97;;;;;4.00;93395.00;;;;7382355;19;20221;-75
2022/11/20 05:02:53;;;;;;;3.20;2.30;;;;;4.00;93397.00;;;;7388954;19;20125;-75
2022/11/20 05:05:28;;;;;;;3.90;2.20;;;;;3.80;93404.00;;;;7387747;19;20159;-75
2022/11/20 05:07:59;;;;;;;3.40;2.00;;;;;3.90;93394.00;;;;7388088;19;20159;-75
2022/11/20 05:10:27;;;;;;;2.30;2.00;;;;;3.90;93394.00;;;;7394034;19;20200;-75
2022/11/20 05:13:08;;;;;;;2.17;1.73;;;;;3.80;93402.00;;;;7389992;19;20658;-75
2022/11/20 05:15:35;;;;;;;2.97;1.73;;;;;3.80;93404.00;;;;7391981;19;20159;-75
2022/11/20 05:18:09;;;;;;;1.40;1.30;;;;;3.70;93400.00;;;;7392256;19;20161;-75
2022/11/20 05:20:36;;;;;;;2.13;1.73;;;;;3.90;93394.00;;;;7389948;19;20151;-75
2022/11/20 05:23:04;;;;;;;2.47;1.60;;;;;3.90;93397.00;;;;7392884;19;20132;-75
2022/11/20 05:25:38;;;;;;;1.70;1.60;;;;;3.60;93397.00;;;;7393371;19;20483;-75
2022/11/20 05:28:05;;;;;;;3.43;1.80;;;;;3.70;93393.00;;;;7396761;19;20129;-75
2022/11/20 05:30:33;;;;;;;2.27;1.83;;;;;3.80;93401.00;;;;7395796;19;20555;-74
2022/11/20 05:33:08;;;;;;;4.93;1.60;;;;;3.70;93394.00;;;;7396692;19;20182;-74
2022/11/20 05:35:36;;;;;;;3.00;1.60;;;;;3.80;93387.00;;;;7392252;19;20588;-75
2022/11/20 05:38:04;;;;;;;1.30;1.20;;;;;3.90;93390.00;;;;7391433;19;20156;-75
2022/11/20 05:40:38;;;;;;;1.50;1.40;;;;;3.80;93400.00;;;;7389331;19;20155;-75
2022/11/20 05:43:06;;;;;;;1.70;1.57;;;;;3.80;93397.00;;;;7392422;19;20246;-75
2022/11/20 05:45:33;;;;;;;1.40;1.30;;;;;3.70;93402.00;;;;7390912;19;20164;-75
2022/11/20 05:48:07;;;;;;;1.40;1.30;;;;;3.70;93398.00;;;;7390927;19;20630;-76
2022/11/20 05:50:35;;;;;;;1.33;1.13;;;;;3.70;93399.00;;;;7391297;19;20153;-76
2022/11/20 05:53:02;;;;;;;1.57;1.30;;;;;3.80;93401.00;;;;7392010;19;20595;-76
2022/11/20 05:55:36;;;;;;;2.27;1.17;;;;;3.90;93396.00;;;;7391037;19;20168;-75
2022/11/20 05:58:03;;;;;;;1.80;1.40;;;;;4.00;93394.00;;;;7389950;19;20184;-76
2022/11/20 06:00:32;;;;;;;2.13;1.40;;;;;3.90;93401.00;;;;7388033;19;20618;-76
2022/11/20 06:03:06;;;;;;;2.00;1.30;;;;;4.00;93403.00;;;;7388858;19;20191;-76
2022/11/20 06:05:34;;;;;;;1.10;1.00;;;;;3.90;93394.00;;;;7390290;19;20757;-75
2022/11/20 06:08:01;;;;;;;1.60;1.50;;;;;3.90;93386.00;;;;7393966;19;21099;-76
2022/11/20 06:10:35;;;;;;;1.53;1.20;;;;;4.10;93389.00;;;;7391181;19;20188;-75
2022/11/20 06:13:12;;;;;;;3.33;1.20;;;;;4.00;93389.00;;;;7387920;19;20623;-75
2022/11/20 06:15:50;;;;;;;1.23;1.10;;;;;3.90;93385.00;;;;7390867;19;20136;-76
2022/11/20 06:18:19;;;;;;;1.67;1.30;;;;;3.90;93385.00;;;;7388410;19;20146;-75
2022/11/20 06:21:01;;;;;;;1.97;1.17;;;;;4.00;93384.00;;;;7388639;19;20163;-75
2022/11/20 06:23:31;;;;;;;3.83;1.13;;;;;4.00;93397.00;;;;7391927;19;20706;-75
2022/11/20 06:26:11;;;;;;;1.53;1.10;;;;;4.00;93386.00;;;;7390133;19;20237;-75
2022/11/20 06:28:42;;;;;;;1.50;1.30;;;;;4.00;93389.00;;;;7387581;19;20144;-75
2022/11/20 06:31:19;;;;;;;1.20;1.10;;;;;4.00;93387.00;;;;7390719;19;20131;-74
2022/11/20 06:33:47;;;;;;;1.37;1.20;;;;;4.00;93391.00;;;;7390671;19;20155;-75
2022/11/20 06:36:18;;;;;;;2.13;1.47;;;;;3.90;93387.00;;;;7388837;19;20157;-75
2022/11/20 06:38:53;;;;;;;1.97;1.13;;;;;3.90;93386.00;;;;7390002;19;20139;-75
2022/11/20 06:41:21;;;;;;;1.50;1.40;;;;;4.10;93390.00;;;;7386473;19;20589;-75
2022/11/20 06:43:50;;;;;;;1.53;1.20;;;;;4.10;93394.00;;;;7388968;19;20627;-75
2022/11/20 06:46:24;;;;;;;1.20;1.10;;;;;4.20;93392.00;;;;7390444;19;20148;-75
2022/11/20 06:48:51;;;;;;;3.37;1.30;;;;;4.00;93400.00;;;;7392269;19;20125;-75
2022/11/20 06:51:19;;;;;;;1.30;1.20;;;;;4.00;93399.00;;;;7394890;19;20596;-75
2022/11/20 06:53:53;;;;;;;1.77;1.67;;;;;4.10;93407.00;;;;7390080;19;20129;-74
2022/11/20 06:56:21;;;;;;;1.50;1.40;;;;;4.10;93407.00;;;;7392989;19;20160;-74
2022/11/20 06:58:48;;;;;;;1.40;1.30;;;;;4.00;93402.00;;;;7391864;19;20170;-74
2022/11/20 07:01:22;;;;;;;1.77;1.40;;;;;4.00;93396.00;;;;7390004;19;20185;-75
2022/11/20 07:03:53;;;;;;;1.50;1.40;;;;;4.00;93418.00;;;;7389139;19;20479;-74
2022/11/20 07:06:21;;;;;;;2.47;1.53;;;;;4.10;93413.00;;;;7389521;19;20212;-74
2022/11/20 07:08:54;;;;;;;1.47;1.33;;;;;4.00;93426.00;;;;7385241;19;20188;-74
2022/11/20 07:11:35;;;;;;;3.83;1.27;;;;;3.80;93430.00;;;;7389204;19;20149;-74
2022/11/20 07:14:11;;;;;;;4.50;1.90;;;;;3.90;93429.00;;;;7388216;19;20584;-75
2022/11/20 07:16:39;;;;;;;1.80;1.50;;;;;3.70;93431.00;;;;7387949;19;20166;-75
2022/11/20 07:19:07;;;;;;;1.47;1.30;;;;;3.50;93440.00;;;;7391913;19;20180;-77
2022/11/20 07:21:42;;;;;;;1.50;1.33;;;;;3.50;93442.00;;;;7394937;19;20152;-76
2022/11/20 07:24:12;;;;;;;1.63;1.10;;;;;3.30;93450.00;;;;7397399;19;20160;-75
2022/11/20 07:26:39;;;;;;;2.83;1.27;;;;;3.30;93447.00;;;;7394042;19;20720;-75
2022/11/20 07:29:14;;;;;;;1.27;1.17;;;;;3.50;93447.00;;;;7395495;19;20219;-76
2022/11/20 07:31:42;;;;;;;1.20;1.10;;;;;3.40;93445.00;;;;7393369;19;20145;-76
2022/11/20 07:34:09;;;;;;;1.50;1.30;;;;;3.30;93450.00;;;;7396769;19;20615;-76
2022/11/20 07:36:44;;;;;;;1.40;1.10;;;;;3.20;93451.00;;;;7396513;19;20164;-76
2022/11/20 07:39:11;;;;;;;1.93;1.10;;;;;3.30;93448.00;;;;7395413;19;20163;-76
2022/11/20 07:41:39;;;;;;;4.60;4.17;;;;;3.30;93454.00;;;;7394594;19;20125;-76
2022/11/20 07:44:13;;;;;;;2.93;1.30;;;;;3.30;93449.00;;;;7393962;19;20483;-76
2022/11/20 07:46:44;;;;;;;1.90;1.23;;;;;3.30;93450.00;;;;7394302;19;20168;-76
2022/11/20 07:49:11;;;;;;;1.40;1.13;;;;;3.20;93451.00;;;;7390616;19;20204;-76
2022/11/20 07:51:46;;;;;;;1.60;1.20;;;;;3.20;93454.00;;;;7390781;19;20124;-76
2022/11/20 07:54:18;;;;;;;1.80;1.10;;;;;3.20;93455.00;;;;7389120;19;20149;-76
2022/11/20 07:56:46;;;;;;;1.43;1.00;;;;;3.10;93458.00;;;;7388998;19;20164;-76
2022/11/20 07:59:20;;;;;;;0.83;0.83;;;;;3.40;93460.00;;;;7387525;19;20773;-76
2022/11/20 08:01:49;;;;;;;1.30;1.20;;;;;3.40;93457.00;;;;7389565;19;20153;-76
2022/11/20 08:04:17;;;;;;;2.00;1.03;;;;;3.40;93450.00;;;;7392374;19;20124;-76
2022/11/20 08:06:53;;;;;;;2.07;1.10;;;;;3.50;93455.00;;;;7396293;19;20148;-76
2022/11/20 08:09:24;;;;;;;1.90;1.80;;;;;3.40;93457.00;;;;7393624;19;20539;-76
2022/11/20 08:14:52;;;;;;;0.97;0.93;;;;;3.50;93470.00;;;;7393085;19;20496;-76
2022/11/20 08:17:26;;;;;;;1.10;1.00;;;;;3.40;93472.00;;;;7391181;19;20156;-76
2022/11/20 08:19:54;;;;;;;1.27;1.10;;;;;3.40;93477.00;;;;7393020;19;20140;-76
2022/11/20 08:22:21;;;;;;;1.30;1.13;;;;;3.40;93472.00;;;;7390298;19;20615;-75
2022/11/20 08:24:55;;;;;;;1.30;1.10;;;;;3.40;93480.00;;;;7390786;19;20154;-76
2022/11/20 08:27:22;;;;;;;1.43;0.93;;;;;3.50;93473.00;;;;7388277;19;20623;-76
2022/11/20 08:29:50;;;;;;;2.20;1.10;;;;;3.70;93477.00;;;;7397695;19;20619;-76
2022/11/20 08:32:25;;;;;;;1.70;1.20;;;;;3.70;93481.00;;;;7400279;19;20643;-76
2022/11/20 08:34:53;;;;;;;0.90;0.90;;;;;3.70;93488.00;;;;7402612;19;20160;-77
2022/11/20 08:37:24;;;;;;;0.80;0.80;;;;;3.60;93472.00;;;;7399759;19;20149;-77
2022/11/20 08:39:58;;;;;;;1.63;1.20;;;;;3.60;93474.00;;;;7402528;19;20651;-77
2022/11/20 08:42:26;;;;;;;1.40;1.30;;;;;3.80;93479.00;;;;7406424;19;20129;-77
2022/11/20 08:44:53;;;;;;;1.33;1.20;;;;;3.80;93484.00;;;;7407670;19;20137;-77
2022/11/20 08:47:28;;;;;;;2.23;1.80;;;;;4.10;93492.00;;;;7407698;19;20436;-77
2022/11/20 08:49:56;;;;;;;2.30;1.80;;;;;4.00;93493.00;;;;7405335;19;20148;-78
2022/11/20 08:52:23;;;;;;;2.10;1.70;;;;;4.00;93488.00;;;;7406633;19;20298;-77
2022/11/20 08:55:02;;;;;;;2.23;2.03;;;;;3.80;93499.00;;;;7407169;19;20149;-76
2022/11/20 08:57:32;;;;;;;2.67;2.03;;;;;3.80;93487.00;;;;7406941;19;20153;-77
2022/11/20 09:00:08;;;;;;;4.50;3.40;;;;;3.80;93492.00;;;;7403301;19;20153;-77
2022/11/20 09:02:39;;;;;;;2.57;2.37;;;;;3.90;93491.00;;;;7403223;19;20145;-77
2022/11/20 09:05:07;;;;;;;3.50;3.20;;;;;3.90;93493.00;;;;7402816;19;20592;-77
2022/11/20 09:07:41;;;;;;;3.43;3.00;;;;;3.90;93496.00;;;;7402319;19;20587;-76
2022/11/20 09:10:09;;;;;;;5.50;3.20;;;;;3.90;93504.00;;;;7402870;19;20172;-76
2022/11/20 09:12:51;;;;;;;3.80;3.10;;;;;3.90;93500.00;;;;7401172;19;20185;-76
2022/11/20 09:15:25;;;;;;;4.37;3.70;;;;;4.00;93500.00;;;;7399916;19;20140;-76
2022/11/20 09:17:55;;;;;;;4.27;3.40;;;;;4.10;93500.00;;;;7402148;19;20156;-76
2022/11/20 09:20:23;;;;;;;5.40;3.40;;;;;3.90;93504.00;;;;7397079;19;20159;-77
2022/11/20 09:22:57;;;;;;;4.20;3.20;;;;;4.00;93512.00;;;;7400476;19;20132;-77
2022/11/20 09:25:25;;;;;;;5.03;3.40;;;;;3.90;93512.00;;;;7395706;19;20166;-77
2022/11/20 09:27:57;;;;;;;4.10;3.20;;;;;3.90;93510.00;;;;7399744;19;20148;-76
2022/11/20 09:30:31;;;;;;;6.50;3.60;;;;;3.90;93509.00;;;;7398755;19;20141;-76
2022/11/20 09:32:59;;;;;;;4.37;3.40;;;;;4.00;93516.00;;;;7400159;19;20159;-76
2022/11/20 09:35:27;;;;;;;4.90;3.43;;;;;4.00;93518.00;;;;7401168;19;20192;-76
2022/11/20 09:38:08;;;;;;;3.07;2.70;;;;;3.90;93513.00;;;;7400763;19;20147;-76
2022/11/20 09:40:39;;;;;;;3.60;2.50;;;;;4.00;93514.00;;;;7401037;19;20145;-76
2022/11/20 09:43:31;;;;;;;2.53;1.93;;;;;3.90;93519.00;;;;7401929;19;20137;-76
2022/11/20 09:46:08;;;;;;;3.13;1.70;;;;;4.00;93517.00;;;;7401476;19;20152;-76
2022/11/20 09:49:09;;;;;;;3.60;3.27;;;;;3.90;93513.00;;;;7401983;19;20177;-76
2022/11/20 09:51:59;;;;;;;2.30;2.10;;;;;3.90;93526.00;;;;7403054;19;20125;-76
2022/11/20 09:54:41;;;;;;;1.90;1.70;;;;;3.90;93511.00;;;;7400086;19;20129;-75
2022/11/20 09:57:29;;;;;;;1.43;1.30;;;;;3.90;93522.00;;;;7400198;19;20148;-76
2022/11/20 10:00:06;;;;;;;1.60;1.50;;;;;3.80;93524.00;;;;7400537;19;20163;-76
2022/11/20 10:02:39;;;;;;;1.73;1.40;;;;;3.80;93531.00;;;;7397718;19;20133;-76
2022/11/20 10:05:36;;;;;;;1.40;1.30;;;;;3.90;93519.00;;;;7400721;19;20152;-77
2022/11/20 10:08:15;;;;;;;3.60;1.80;;;;;3.60;93519.00;;;;7401026;19;20631;-76
2022/11/20 10:11:14;;;;;;;1.73;1.63;;;;;3.60;93523.00;;;;7399206;19;20178;-75
2022/11/20 10:14:31;;;;;;;3.07;2.13;;;;;3.60;93529.00;;;;7397612;19;20643;-76
2022/11/20 10:17:42;;;;;;;15.70;7.73;;;;;3.60;93515.00;;;;7399212;19;20200;-76
2022/11/20 10:20:43;;;;;;;6.57;4.40;;;;;3.80;93516.00;;;;7400125;19;20158;-77
2022/11/20 10:23:42;;;;;;;4.90;3.03;;;;;3.80;93510.00;;;;7400533;19;20152;-77
2022/11/20 10:26:38;;;;;;;6.47;3.50;;;;;3.80;93515.00;;;;7396057;19;20125;-76
2022/11/20 10:29:17;;;;;;;9.30;3.63;;;;;3.80;93511.00;;;;7398458;19;20650;-76
2022/11/20 10:31:57;;;;;;;7.90;4.00;;;;;3.70;93520.00;;;;7393930;19;20156;-76
2022/11/20 10:34:37;;;;;;;4.20;3.40;;;;;3.90;93508.00;;;;7395739;19;20136;-76
2022/11/20 10:37:17;;;;;;;6.53;3.67;;;;;4.30;93494.00;;;;7396475;19;20137;-76
2022/11/20 10:40:17;;;;;;;8.43;3.23;;;;;5.30;93489.00;;;;7394688;19;20177;-77
2022/11/20 10:42:51;;;;;;;6.43;3.47;;;;;5.70;93504.00;;;;7390138;19;20648;-77
2022/11/20 10:45:25;;;;;;;9.43;3.57;;;;;5.30;93494.00;;;;7391081;19;20156;-76
2022/11/20 10:48:07;;;;;;;3.80;2.73;;;;;5.10;93500.00;;;;7390772;19;20148;-77
2022/11/20 10:50:55;;;;;;;7.07;2.90;;;;;4.90;93496.00;;;;7389940;19;20220;-77
2022/11/20 10:53:28;;;;;;;4.37;2.60;;;;;4.80;93499.00;;;;7389834;19;20168;-77
2022/11/20 10:56:15;;;;;;;4.13;2.63;;;;;5.10;93497.00;;;;7391550;19;20156;-76
2022/11/20 10:59:14;;;;;;;4.20;2.27;;;;;5.00;93500.00;;;;7390547;19;20612;-76
2022/11/20 11:01:49;;;;;;;5.33;2.47;;;;;4.80;93497.00;;;;7390124;19;20137;-77
2022/11/20 11:04:43;;;;;;;5.07;2.10;;;;;4.80;93499.00;;;;7386050;19;20132;-76
2022/11/20 11:07:33;;;;;;;4.00;1.97;;;;;4.80;93482.00;;;;7386120;19;21534;-77
2022/11/20 11:10:01;;;;;;;4.90;2.10;;;;;5.40;93479.00;;;;7390682;19;20160;-77
2022/11/20 11:12:42;;;;;;;6.17;2.60;;;;;5.70;93470.00;;;;7385671;19;20172;-76
2022/11/20 11:15:40;;;;;;;6.33;2.00;;;;;5.90;93470.00;;;;7391288;19;20145;-76
2022/11/20 11:21:58;;;;;;;4.23;1.87;;;;;6.00;93458.00;;;;7390206;19;20185;-76
2022/11/20 11:24:32;;;;;;;5.20;1.77;;;;;6.00;93455.00;;;;7398466;19;20152;-77
2022/11/20 11:27:17;;;;;;;3.87;1.70;;;;;7.00;93434.00;;;;7398567;19;20148;-77
2022/11/20 11:30:10;;;;;;;4.50;2.10;;;;;7.60;93425.00;;;;7398297;19;20638;-77
2022/11/20 11:32:45;;;;;;;2.40;1.80;;;;;8.10;93429.00;;;;7398103;19;20612;-77
2022/11/20 11:35:23;;;;;;;2.40;1.30;;;;;8.20;93433.00;;;;7396529;19;20162;-76
2022/11/20 11:37:54;;;;;;;1.80;1.30;;;;;7.70;93446.00;;;;7398557;19;20148;-77
2022/11/20 11:40:31;;;;;;;2.93;1.30;;;;;6.90;93438.00;;;;7397337;19;20650;-76
2022/11/20 11:43:02;;;;;;;1.90;1.20;;;;;6.80;93427.00;;;;7396535;19;20128;-77
2022/11/20 11:45:36;;;;;;;2.97;1.40;;;;;7.30;93428.00;;;;7398818;19;20163;-76
2022/11/20 11:48:08;;;;;;;4.17;1.40;;;;;7.00;93438.00;;;;7396738;19;20575;-76
2022/11/20 11:50:35;;;;;;;1.43;1.20;;;;;6.40;93414.00;;;;7388155;19;20135;-76
2022/11/20 11:53:30;;;;;;;1.37;1.23;;;;;6.90;93431.00;;;;7397642;19;20607;-76
2022/11/20 11:56:09;;;;;;;1.67;1.40;;;;;7.00;93413.00;;;;7394271;19;20616;-75
2022/11/20 11:58:49;;;;;;;2.77;1.40;;;;;8.60;93402.00;;;;7396111;19;20150;-75
2022/11/20 12:01:40;;;;;;;3.40;1.40;;;;;9.30;93391.00;;;;7393121;19;20157;-75
2022/11/20 12:04:31;;;;;;;2.42;1.40;;;;;9.30;93392.00;;;;7395847;19;20156;-75
2022/11/20 12:07:07;;;;;;;3.03;1.20;;;;;9.50;93416.00;;;;7394452;19;20520;-76
2022/11/20 12:10:02;;;;;;;2.95;1.33;;;;;9.50;93394.00;;;;7393370;19;20156;-75
2022/11/20 12:12:42;;;;;;;2.13;1.27;;;;;8.70;93395.00;;;;7391768;19;20172;-76
2022/11/20 12:15:35;;;;;;;4.55;1.50;;;;;9.40;93389.00;;;;7397164;19;20500;-76
2022/11/20 12:18:14;;;;;;;2.00;1.20;;;;;10.20;93410.00;;;;7394333;19;20160;-75
2022/11/20 12:21:14;;;;;;;1.85;1.13;;;;;10.00;93407.00;;;;7392978;19;20148;-76
2022/11/20 12:24:03;;;;;;;4.47;1.35;;;;;8.90;93420.00;;;;7395602;19;20480;-75
2022/11/20 12:26:43;;;;;;;1.60;1.10;;;;;7.50;93425.00;;;;7394545;19;20133;-75
2022/11/20 12:29:36;;;;;;;3.70;1.53;;;;;7.10;93424.00;;;;7395794;19;20616;-76
2022/11/20 12:32:39;;;;;;;3.23;1.27;;;;;7.10;93411.00;;;;7393520;19;20696;-76
2022/11/20 12:35:29;;;;;;;2.07;1.03;;;;;7.40;93426.00;;;;7393409;19;20205;-75
2022/11/20 12:38:23;;;;;;;2.87;1.03;;;;;7.00;93417.00;;;;7395816;19;20600;-76
2022/11/20 12:41:11;;;;;;;3.37;1.37;;;;;7.10;93430.00;;;;7392650;19;20180;-76
2022/11/20 12:47:22;;;;;;;3.23;1.20;;;;;6.10;93425.00;;;;7396269;19;20168;-74
2022/11/20 12:50:12;;;;;;;2.23;1.30;;;;;5.80;93429.00;;;;7397015;19;20591;-74
2022/11/20 12:52:48;;;;;;;4.23;1.47;;;;;5.70;93429.00;;;;7397978;19;20177;-75
2022/11/20 12:55:29;;;;;;;5.13;1.30;;;;;5.40;93420.00;;;;7397471;19;20151;-77
2022/11/20 12:58:19;;;;;;;2.53;1.07;;;;;5.50;93422.00;;;;7396935;19;20212;-75
2022/11/20 13:01:39;;;;;;;2.63;1.20;;;;;5.40;93415.00;;;;7396744;19;20133;-75
2022/11/20 13:04:26;;;;;;;2.70;1.17;;;;;5.30;93427.00;;;;7396067;19;20627;-76
2022/11/20 13:07:05;;;;;;;2.53;1.23;;;;;5.40;93432.00;;;;7396869;19;20156;-75
2022/11/20 13:09:36;;;;;;;2.43;1.30;;;;;5.60;93434.00;;;;7396464;19;20616;-75
2022/11/20 13:12:32;;;;;;;2.83;1.13;;;;;5.60;93427.00;;;;7396004;19;20176;-75
2022/11/20 13:15:15;;;;;;;3.20;1.27;;;;;5.50;93426.00;;;;7397041;19;20471;-74
2022/11/20 13:17:59;;;;;;;1.63;1.20;;;;;5.20;93423.00;;;;7396953;19;20152;-75
2022/11/20 13:20:27;;;;;;;2.93;1.10;;;;;5.40;93412.00;;;;7396204;19;20148;-76
2022/11/20 13:23:01;;;;;;;3.10;1.30;;;;;5.50;93415.00;;;;7394527;19;20136;-76